sensor_id;sensor_type;location;lat;lon;timestamp;pressure;altitude;pressure_sealevel;temperature;humidity
22031;BME280;11179;52.106;21.024;2023-02-10T00:01:19;101929.78;;;-1.53;52.03
22031;BME280;11179;52.106;21.024;2023-02-10T00:03:45;101927.06;;;-1.53;51.96
22031;BME280;11179;52.106;21.024;2023-02-10T00:06:11;101930.63;;;-1.53;51.97
22031;BME280;11179;52.106;21.024;2023-02-10T00:08:37;101925.22;;;-1.53;52.18
22031;BME280;11179;52.106;21.024;2023-02-10T00:11:06;101926.09;;;-1.52;52.21
22031;BME280;11179;52.106;21.024;2023-02-10T00:13:32;101919.84;;;-1.53;52.17
22031;BME280;11179;52.106;21.024;2023-02-10T00:15:59;101915.72;;;-1.57;52.47
22031;BME280;11179;52.106;21.024;2023-02-10T00:18:25;101913.03;;;-1.57;52.31
22031;BME280;11179;52.106;21.024;2023-02-10T00:20:51;101913.88;;;-1.56;52.49
22031;BME280;11179;52.106;21.024;2023-02-10T00:23:16;101912.19;;;-1.57;52.58
22031;BME280;11179;52.106;21.024;2023-02-10T00:25:41;101907.38;;;-1.63;52.69
22031;BME280;11179;52.106;21.024;2023-02-10T00:28:07;101894.63;;;-1.61;52.67
22031;BME280;11179;52.106;21.024;2023-02-10T00:30:32;101895.63;;;-1.62;52.70
22031;BME280;11179;52.106;21.024;2023-02-10T00:32:58;101893.63;;;-1.60;52.70
22031;BME280;11179;52.106;21.024;2023-02-10T00:35:23;101885.13;;;-1.66;52.86
22031;BME280;11179;52.106;21.024;2023-02-10T00:37:48;101888.53;;;-1.63;52.73
22031;BME280;11179;52.106;21.024;2023-02-10T00:40:14;101887.81;;;-1.66;52.76
22031;BME280;11179;52.106;21.024;2023-02-10T00:42:40;101899.56;;;-1.67;52.85
22031;BME280;11179;52.106;21.024;2023-02-10T00:45:05;101879.88;;;-1.67;53.00
22031;BME280;11179;52.106;21.024;2023-02-10T00:47:30;101878.56;;;-1.73;52.96
22031;BME280;11179;52.106;21.024;2023-02-10T00:49:56;101875.19;;;-1.75;52.88
22031;BME280;11179;52.106;21.024;2023-02-10T00:52:22;101885.66;;;-1.72;52.88
22031;BME280;11179;52.106;21.024;2023-02-10T00:54:48;101882.44;;;-1.75;53.00
22031;BME280;11179;52.106;21.024;2023-02-10T00:57:13;101878.16;;;-1.78;53.02
22031;BME280;11179;52.106;21.024;2023-02-10T00:59:39;101879.16;;;-1.79;53.12
22031;BME280;11179;52.106;21.024;2023-02-10T01:02:04;101878.72;;;-1.84;53.17
22031;BME280;11179;52.106;21.024;2023-02-10T01:04:30;101871.22;;;-1.90;53.29
22031;BME280;11179;52.106;21.024;2023-02-10T01:06:55;101870.78;;;-1.95;53.25
22031;BME280;11179;52.106;21.024;2023-02-10T01:09:20;101872.75;;;-1.97;53.39
22031;BME280;11179;52.106;21.024;2023-02-10T01:11:46;101874.91;;;-2.01;53.41
22031;BME280;11179;52.106;21.024;2023-02-10T01:14:11;101884.09;;;-2.03;53.52
22031;BME280;11179;52.106;21.024;2023-02-10T01:16:37;101887.34;;;-2.09;53.64
22031;BME280;11179;52.106;21.024;2023-02-10T01:19:03;101886.63;;;-2.11;53.58
22031;BME280;11179;52.106;21.024;2023-02-10T01:21:28;101888.59;;;-2.13;53.69
22031;BME280;11179;52.106;21.024;2023-02-10T01:23:55;101867.78;;;-2.21;53.80
22031;BME280;11179;52.106;21.024;2023-02-10T01:26:21;101875.00;;;-2.21;53.88
22031;BME280;11179;52.106;21.024;2023-02-10T01:28:47;101874.28;;;-2.23;53.78
22031;BME280;11179;52.106;21.024;2023-02-10T01:31:18;101872.88;;;-2.27;53.95
22031;BME280;11179;52.106;21.024;2023-02-10T01:33:44;101870.44;;;-2.30;54.08
22031;BME280;11179;52.106;21.024;2023-02-10T01:36:13;101861.50;;;-2.41;54.08
22031;BME280;11179;52.106;21.024;2023-02-10T01:38:39;101872.09;;;-2.39;54.26
22031;BME280;11179;52.106;21.024;2023-02-10T01:41:05;101871.41;;;-2.41;54.25
22031;BME280;11179;52.106;21.024;2023-02-10T01:43:31;101870.13;;;-2.47;54.38
22031;BME280;11179;52.106;21.024;2023-02-10T01:45:56;101866.72;;;-2.49;54.36
22031;BME280;11179;52.106;21.024;2023-02-10T01:48:22;101858.47;;;-2.57;54.54
22031;BME280;11179;52.106;21.024;2023-02-10T01:50:55;101862.16;;;-2.58;54.67
22031;BME280;11179;52.106;21.024;2023-02-10T01:53:22;101870.88;;;-2.65;54.66
22031;BME280;11179;52.106;21.024;2023-02-10T01:55:53;101862.97;;;-2.67;54.72
22031;BME280;11179;52.106;21.024;2023-02-10T01:58:21;101859.13;;;-2.74;54.95
22031;BME280;11179;52.106;21.024;2023-02-10T02:00:48;101866.59;;;-2.78;54.67
22031;BME280;11179;52.106;21.024;2023-02-10T02:03:14;101857.00;;;-2.80;54.98
22031;BME280;11179;52.106;21.024;2023-02-10T02:05:41;101857.13;;;-2.82;54.98
22031;BME280;11179;52.106;21.024;2023-02-10T02:08:09;101859.81;;;-2.82;55.16
22031;BME280;11179;52.106;21.024;2023-02-10T02:10:48;101863.63;;;-2.84;55.14
22031;BME280;11179;52.106;21.024;2023-02-10T02:19:00;101858.63;;;-2.89;55.33
22031;BME280;11179;52.106;21.024;2023-02-10T02:32:33;101842.22;;;-2.95;55.54
22031;BME280;11179;52.106;21.024;2023-02-10T02:35:06;101854.09;;;-2.88;55.57
22031;BME280;11179;52.106;21.024;2023-02-10T02:37:41;101850.56;;;-2.89;55.58
22031;BME280;11179;52.106;21.024;2023-02-10T02:40:08;101856.78;;;-2.88;55.67
22031;BME280;11179;52.106;21.024;2023-02-10T02:42:34;101854.38;;;-2.91;55.57
22031;BME280;11179;52.106;21.024;2023-02-10T02:45:14;101849.00;;;-2.91;55.64
22031;BME280;11179;52.106;21.024;2023-02-10T02:47:50;101865.13;;;-2.91;55.89
22031;BME280;11179;52.106;21.024;2023-02-10T02:50:39;101858.63;;;-2.89;55.92
22031;BME280;11179;52.106;21.024;2023-02-10T03:01:34;101845.19;;;-2.89;56.00
22031;BME280;11179;52.106;21.024;2023-02-10T03:04:01;101848.47;;;-2.85;56.15
22031;BME280;11179;52.106;21.024;2023-02-10T03:06:28;101850.91;;;-2.82;56.01
22031;BME280;11179;52.106;21.024;2023-02-10T03:08:54;101856.81;;;-2.79;56.01
22031;BME280;11179;52.106;21.024;2023-02-10T03:11:19;101841.97;;;-2.83;56.05
22031;BME280;11179;52.106;21.024;2023-02-10T03:13:44;101857.28;;;-2.74;56.04
22031;BME280;11179;52.106;21.024;2023-02-10T03:16:10;101858.13;;;-2.73;55.93
22031;BME280;11179;52.106;21.024;2023-02-10T03:18:35;101855.06;;;-2.68;56.00
22031;BME280;11179;52.106;21.024;2023-02-10T03:21:00;101849.25;;;-2.64;56.10
22031;BME280;11179;52.106;21.024;2023-02-10T03:23:26;101851.41;;;-2.58;56.09
22031;BME280;11179;52.106;21.024;2023-02-10T03:25:52;101853.66;;;-2.53;56.16
22031;BME280;11179;52.106;21.024;2023-02-10T03:28:17;101854.81;;;-2.46;56.15
22031;BME280;11179;52.106;21.024;2023-02-10T03:30:43;101841.81;;;-2.41;56.24
22031;BME280;11179;52.106;21.024;2023-02-10T03:33:13;101837.00;;;-2.38;56.03
22031;BME280;11179;52.106;21.024;2023-02-10T03:35:38;101831.34;;;-2.34;56.20
22031;BME280;11179;52.106;21.024;2023-02-10T03:38:05;101836.16;;;-2.38;56.34
22031;BME280;11179;52.106;21.024;2023-02-10T03:40:30;101836.28;;;-2.40;56.27
22031;BME280;11179;52.106;21.024;2023-02-10T03:42:55;101834.75;;;-2.42;56.06
22031;BME280;11179;52.106;21.024;2023-02-10T03:45:21;101845.91;;;-2.37;56.09
22031;BME280;11179;52.106;21.024;2023-02-10T03:47:46;101844.34;;;-2.40;56.00
22031;BME280;11179;52.106;21.024;2023-02-10T03:50:11;101839.28;;;-2.43;55.93
22031;BME280;11179;52.106;21.024;2023-02-10T03:52:36;101835.00;;;-2.45;56.18
22031;BME280;11179;52.106;21.024;2023-02-10T03:55:02;101828.78;;;-2.46;56.21
22031;BME280;11179;52.106;21.024;2023-02-10T03:57:27;101827.09;;;-2.47;56.11
22031;BME280;11179;52.106;21.024;2023-02-10T03:59:52;101824.53;;;-2.48;56.17
22031;BME280;11179;52.106;21.024;2023-02-10T04:02:18;101825.38;;;-2.48;56.26
22031;BME280;11179;52.106;21.024;2023-02-10T04:04:43;101825.66;;;-2.51;56.21
22031;BME280;11179;52.106;21.024;2023-02-10T04:07:08;101831.88;;;-2.50;56.20
22031;BME280;11179;52.106;21.024;2023-02-10T04:09:34;101826.63;;;-2.52;56.01
22031;BME280;11179;52.106;21.024;2023-02-10T04:11:59;101826.75;;;-2.53;56.01
22031;BME280;11179;52.106;21.024;2023-02-10T04:14:24;101837.53;;;-2.53;56.15
22031;BME280;11179;52.106;21.024;2023-02-10T04:16:50;101833.00;;;-2.53;56.07
22031;BME280;11179;52.106;21.024;2023-02-10T04:19:15;101824.50;;;-2.58;56.08
22031;BME280;11179;52.106;21.024;2023-02-10T04:21:40;101829.88;;;-2.58;55.95
22031;BME280;11179;52.106;21.024;2023-02-10T04:24:06;101841.50;;;-2.57;56.15
22031;BME280;11179;52.106;21.024;2023-02-10T04:26:31;101849.44;;;-2.56;55.97
22031;BME280;11179;52.106;21.024;2023-02-10T04:28:56;101851.41;;;-2.58;56.21
22031;BME280;11179;52.106;21.024;2023-02-10T04:31:22;101841.91;;;-2.62;56.22
22031;BME280;11179;52.106;21.024;2023-02-10T04:33:47;101851.66;;;-2.61;56.15
22031;BME280;11179;52.106;21.024;2023-02-10T04:36:12;101856.19;;;-2.61;56.41
22031;BME280;11179;52.106;21.024;2023-02-10T04:38:38;101852.06;;;-2.65;56.38
22031;BME280;11179;52.106;21.024;2023-02-10T04:41:03;101852.22;;;-2.67;56.18
22031;BME280;11179;52.106;21.024;2023-02-10T04:43:30;101840.16;;;-2.73;56.30
22031;BME280;11179;52.106;21.024;2023-02-10T04:45:55;101852.50;;;-2.70;56.40
22031;BME280;11179;52.106;21.024;2023-02-10T04:48:20;101858.59;;;-2.68;56.58
22031;BME280;11179;52.106;21.024;2023-02-10T04:50:46;101852.50;;;-2.70;56.55
22031;BME280;11179;52.106;21.024;2023-02-10T04:53:12;101842.72;;;-2.71;56.56
22031;BME280;11179;52.106;21.024;2023-02-10T04:55:38;101837.47;;;-2.73;56.54
22031;BME280;11179;52.106;21.024;2023-02-10T04:58:03;101841.00;;;-2.72;56.67
22031;BME280;11179;52.106;21.024;2023-02-10T05:00:28;101832.94;;;-2.72;56.54
22031;BME280;11179;52.106;21.024;2023-02-10T05:02:54;101829.41;;;-2.73;56.43
22031;BME280;11179;52.106;21.024;2023-02-10T05:05:19;101834.53;;;-2.69;56.47
22031;BME280;11179;52.106;21.024;2023-02-10T05:07:45;101833.66;;;-2.70;56.55
22031;BME280;11179;52.106;21.024;2023-02-10T05:10:10;101826.16;;;-2.66;56.69
22031;BME280;11179;52.106;21.024;2023-02-10T05:12:36;101820.38;;;-2.62;56.55
22031;BME280;11179;52.106;21.024;2023-02-10T05:15:02;101824.25;;;-2.55;56.67
22031;BME280;11179;52.106;21.024;2023-02-10T05:17:27;101827.09;;;-2.47;56.69
22031;BME280;11179;52.106;21.024;2023-02-10T05:19:53;101829.91;;;-2.39;56.74
22031;BME280;11179;52.106;21.024;2023-02-10T05:22:18;101834.63;;;-2.31;56.70
22031;BME280;11179;52.106;21.024;2023-02-10T05:24:43;101834.91;;;-2.24;56.74
22031;BME280;11179;52.106;21.024;2023-02-10T05:27:09;101833.38;;;-2.17;56.47
22031;BME280;11179;52.106;21.024;2023-02-10T05:29:34;101828.25;;;-2.11;56.52
22031;BME280;11179;52.106;21.024;2023-02-10T05:31:59;101823.47;;;-2.07;56.70
22031;BME280;11179;52.106;21.024;2023-02-10T05:34:24;101818.06;;;-2.07;56.61
22031;BME280;11179;52.106;21.024;2023-02-10T05:36:51;101811.00;;;-2.08;56.31
22031;BME280;11179;52.106;21.024;2023-02-10T05:39:17;101814.97;;;-2.03;56.57
22031;BME280;11179;52.106;21.024;2023-02-10T05:41:48;101815.81;;;-2.02;56.28
22031;BME280;11179;52.106;21.024;2023-02-10T05:44:14;101820.22;;;-2.01;56.48
22031;BME280;11179;52.106;21.024;2023-02-10T05:46:39;101810.97;;;-1.98;56.57
22031;BME280;11179;52.106;21.024;2023-02-10T05:49:04;101814.97;;;-1.93;56.60
22031;BME280;11179;52.106;21.024;2023-02-10T05:51:33;101817.38;;;-1.90;56.45
22031;BME280;11179;52.106;21.024;2023-02-10T05:53:59;101822.75;;;-1.80;56.51
22031;BME280;11179;52.106;21.024;2023-02-10T05:56:25;101828.00;;;-1.79;56.45
22031;BME280;11179;52.106;21.024;2023-02-10T05:58:50;101832.13;;;-1.75;56.29
22031;BME280;11179;52.106;21.024;2023-02-10T06:01:16;101844.28;;;-1.71;56.24
22031;BME280;11179;52.106;21.024;2023-02-10T06:03:46;101845.44;;;-1.63;56.35
22031;BME280;11179;52.106;21.024;2023-02-10T06:06:12;101843.59;;;-1.63;56.45
22031;BME280;11179;52.106;21.024;2023-02-10T06:08:37;101843.28;;;-1.60;56.56
22031;BME280;11179;52.106;21.024;2023-02-10T06:11:03;101845.53;;;-1.55;56.45
22031;BME280;11179;52.106;21.024;2023-02-10T06:13:29;101830.81;;;-1.51;56.54
22031;BME280;11179;52.106;21.024;2023-02-10T06:15:55;101836.19;;;-1.51;56.35
22031;BME280;11179;52.106;21.024;2023-02-10T06:18:20;101841.84;;;-1.45;56.39
22031;BME280;11179;52.106;21.024;2023-02-10T06:20:46;101840.28;;;-1.38;56.65
22031;BME280;11179;52.106;21.024;2023-02-10T06:23:12;101845.22;;;-1.33;56.32
22031;BME280;11179;52.106;21.024;2023-02-10T06:25:37;101844.94;;;-1.30;56.44
22031;BME280;11179;52.106;21.024;2023-02-10T06:28:02;101849.63;;;-1.22;56.43
22031;BME280;11179;52.106;21.024;2023-02-10T06:30:28;101855.72;;;-1.20;56.47
22031;BME280;11179;52.106;21.024;2023-02-10T06:32:53;101852.72;;;-1.17;56.29
22031;BME280;11179;52.106;21.024;2023-02-10T06:35:19;101859.38;;;-1.12;56.42
22031;BME280;11179;52.106;21.024;2023-02-10T06:37:44;101852.72;;;-1.08;56.45
22031;BME280;11179;52.106;21.024;2023-02-10T06:40:10;101851.25;;;-1.02;56.47
22031;BME280;11179;52.106;21.024;2023-02-10T06:42:36;101851.13;;;-1.01;56.48
22031;BME280;11179;52.106;21.024;2023-02-10T06:45:02;101856.47;;;-0.91;56.20
22031;BME280;11179;52.106;21.024;2023-02-10T06:47:27;101863.13;;;-0.85;56.24
22031;BME280;11179;52.106;21.024;2023-02-10T06:49:52;101857.13;;;-0.79;56.34
22031;BME280;11179;52.106;21.024;2023-02-10T06:52:18;101868.03;;;-0.71;56.35
22031;BME280;11179;52.106;21.024;2023-02-10T06:54:43;101873.81;;;-0.66;56.28
22031;BME280;11179;52.106;21.024;2023-02-10T06:57:09;101866.84;;;-0.59;56.21
22031;BME280;11179;52.106;21.024;2023-02-10T06:59:35;101873.66;;;-0.55;56.14
22031;BME280;11179;52.106;21.024;2023-02-10T07:02:00;101864.94;;;-0.49;55.96
22031;BME280;11179;52.106;21.024;2023-02-10T07:04:30;101857.84;;;-0.50;55.92
22031;BME280;11179;52.106;21.024;2023-02-10T07:06:57;101875.31;;;-0.44;55.90
22031;BME280;11179;52.106;21.024;2023-02-10T07:09:23;101876.94;;;-0.34;55.79
22031;BME280;11179;52.106;21.024;2023-02-10T07:11:49;101881.06;;;-0.30;55.73
22031;BME280;11179;52.106;21.024;2023-02-10T07:14:14;101875.72;;;-0.22;55.61
22031;BME280;11179;52.106;21.024;2023-02-10T07:16:40;101873.03;;;-0.22;55.50
22031;BME280;11179;52.106;21.024;2023-02-10T07:19:05;101867.63;;;-0.22;55.43
22031;BME280;11179;52.106;21.024;2023-02-10T07:21:30;101865.09;;;-0.23;55.52
22031;BME280;11179;52.106;21.024;2023-02-10T07:23:56;101864.09;;;-0.22;55.17
22031;BME280;11179;52.106;21.024;2023-02-10T07:26:21;101865.00;;;-0.13;55.16
22031;BME280;11179;52.106;21.024;2023-02-10T07:28:46;101870.53;;;-0.05;55.13
22031;BME280;11179;52.106;21.024;2023-02-10T07:31:12;101882.72;;;0.17;54.91
22031;BME280;11179;52.106;21.024;2023-02-10T07:33:38;101877.41;;;0.42;54.54
22031;BME280;11179;52.106;21.024;2023-02-10T07:36:03;101867.19;;;0.54;54.17
22031;BME280;11179;52.106;21.024;2023-02-10T07:38:30;101873.38;;;0.64;54.06
22031;BME280;11179;52.106;21.024;2023-02-10T07:40:56;101869.09;;;0.79;53.67
22031;BME280;11179;52.106;21.024;2023-02-10T07:43:21;101877.56;;;1.10;53.42
22031;BME280;11179;52.106;21.024;2023-02-10T07:45:46;101877.38;;;1.38;53.15
22031;BME280;11179;52.106;21.024;2023-02-10T07:48:12;101871.41;;;1.60;52.92
22031;BME280;11179;52.106;21.024;2023-02-10T07:50:37;101868.75;;;1.68;52.27
22031;BME280;11179;52.106;21.024;2023-02-10T07:53:02;101859.66;;;1.85;52.29
22031;BME280;11179;52.106;21.024;2023-02-10T07:55:28;101859.84;;;2.00;52.20
22031;BME280;11179;52.106;21.024;2023-02-10T07:57:53;101863.63;;;2.23;51.98
22031;BME280;11179;52.106;21.024;2023-02-10T08:00:18;101863.81;;;2.46;51.69
22031;BME280;11179;52.106;21.024;2023-02-10T08:02:44;101868.91;;;2.65;51.44
22031;BME280;11179;52.106;21.024;2023-02-10T08:05:10;101866.00;;;2.67;51.41
22031;BME280;11179;52.106;21.024;2023-02-10T08:07:36;101864.31;;;2.66;50.68
22031;BME280;11179;52.106;21.024;2023-02-10T08:10:02;101870.25;;;2.70;51.10
22031;BME280;11179;52.106;21.024;2023-02-10T08:12:27;101862.78;;;2.55;50.72
22031;BME280;11179;52.106;21.024;2023-02-10T08:14:53;101855.16;;;2.43;50.78
22031;BME280;11179;52.106;21.024;2023-02-10T08:17:18;101860.06;;;2.31;51.08
22031;BME280;11179;52.106;21.024;2023-02-10T08:19:43;101846.50;;;2.15;51.04
22031;BME280;11179;52.106;21.024;2023-02-10T08:22:09;101854.78;;;2.13;51.28
22031;BME280;11179;52.106;21.024;2023-02-10T08:24:34;101863.47;;;2.25;51.39
22031;BME280;11179;52.106;21.024;2023-02-10T08:27:00;101864.84;;;2.37;51.06
22031;BME280;11179;52.106;21.024;2023-02-10T08:29:25;101869.91;;;2.48;51.17
22031;BME280;11179;52.106;21.024;2023-02-10T08:31:51;101876.69;;;2.60;51.16
22031;BME280;11179;52.106;21.024;2023-02-10T08:34:19;101867.53;;;2.78;50.70
22031;BME280;11179;52.106;21.024;2023-02-10T08:36:45;101867.34;;;2.95;50.83
22031;BME280;11179;52.106;21.024;2023-02-10T08:39:12;101859.34;;;3.10;50.54
22031;BME280;11179;52.106;21.024;2023-02-10T08:41:38;101868.16;;;3.12;50.36
22031;BME280;11179;52.106;21.024;2023-02-10T08:44:04;101854.94;;;3.09;50.90
22031;BME280;11179;52.106;21.024;2023-02-10T08:46:29;101859.88;;;3.06;50.66
22031;BME280;11179;52.106;21.024;2023-02-10T08:48:55;101849.88;;;2.82;50.85
22031;BME280;11179;52.106;21.024;2023-02-10T08:51:20;101852.78;;;2.72;51.05
22031;BME280;11179;52.106;21.024;2023-02-10T08:53:46;101857.03;;;2.58;51.47
22031;BME280;11179;52.106;21.024;2023-02-10T08:56:15;101871.78;;;2.64;51.68
22031;BME280;11179;52.106;21.024;2023-02-10T08:58:41;101878.06;;;2.64;51.61
22031;BME280;11179;52.106;21.024;2023-02-10T09:01:11;101878.22;;;2.55;51.77
22031;BME280;11179;52.106;21.024;2023-02-10T09:03:37;101877.22;;;2.48;51.87
22031;BME280;11179;52.106;21.024;2023-02-10T09:06:03;101865.84;;;2.44;51.96
22031;BME280;11179;52.106;21.024;2023-02-10T09:08:29;101873.81;;;2.46;51.84
22031;BME280;11179;52.106;21.024;2023-02-10T09:10:54;101873.97;;;2.36;52.04
22031;BME280;11179;52.106;21.024;2023-02-10T09:13:19;101874.81;;;2.28;52.36
22031;BME280;11179;52.106;21.024;2023-02-10T09:15:46;101887.88;;;2.25;52.70
22031;BME280;11179;52.106;21.024;2023-02-10T09:18:12;101900.56;;;2.24;52.52
22031;BME280;11179;52.106;21.024;2023-02-10T09:20:37;101901.22;;;2.26;52.68
22031;BME280;11179;52.106;21.024;2023-02-10T09:23:03;101914.97;;;2.25;52.52
22031;BME280;11179;52.106;21.024;2023-02-10T09:25:28;101912.56;;;2.22;53.03
22031;BME280;11179;52.106;21.024;2023-02-10T09:27:54;101914.59;;;2.20;53.10
22031;BME280;11179;52.106;21.024;2023-02-10T09:30:22;101913.59;;;2.29;52.86
22031;BME280;11179;52.106;21.024;2023-02-10T09:32:48;101918.84;;;2.30;52.90
22031;BME280;11179;52.106;21.024;2023-02-10T09:35:13;101910.75;;;2.39;53.05
22031;BME280;11179;52.106;21.024;2023-02-10T09:37:38;101914.31;;;2.47;52.82
22031;BME280;11179;52.106;21.024;2023-02-10T09:40:04;101924.84;;;2.50;52.97
22031;BME280;11179;52.106;21.024;2023-02-10T09:42:44;101917.50;;;2.43;53.04
22031;BME280;11179;52.106;21.024;2023-02-10T09:45:16;101912.25;;;2.33;53.21
22031;BME280;11179;52.106;21.024;2023-02-10T09:47:51;101927.16;;;2.29;53.36
22031;BME280;11179;52.106;21.024;2023-02-10T09:53:19;101925.31;;;2.38;53.61
22031;BME280;11179;52.106;21.024;2023-02-10T09:55:49;101929.38;;;2.34;53.86
22031;BME280;11179;52.106;21.024;2023-02-10T09:58:26;101936.16;;;2.38;53.71
22031;BME280;11179;52.106;21.024;2023-02-10T10:00:58;101934.78;;;2.42;53.70
22031;BME280;11179;52.106;21.024;2023-02-10T10:03:28;101934.97;;;2.40;53.80
22031;BME280;11179;52.106;21.024;2023-02-10T10:13:48;101920.09;;;2.60;53.78
22031;BME280;11179;52.106;21.024;2023-02-10T10:16:22;101909.06;;;2.62;53.65
22031;BME280;11179;52.106;21.024;2023-02-10T10:22:07;101898.88;;;2.56;53.91
22031;BME280;11179;52.106;21.024;2023-02-10T10:30:17;101897.72;;;2.50;53.96
22031;BME280;11179;52.106;21.024;2023-02-10T10:32:45;101895.34;;;2.47;54.10
22031;BME280;11179;52.106;21.024;2023-02-10T10:35:30;101909.75;;;2.48;54.34
22031;BME280;11179;52.106;21.024;2023-02-10T10:37:57;101907.19;;;2.54;54.27
22031;BME280;11179;52.106;21.024;2023-02-10T10:40:27;101905.19;;;2.64;54.64
22031;BME280;11179;52.106;21.024;2023-02-10T10:42:56;101903.13;;;2.66;54.58
22031;BME280;11179;52.106;21.024;2023-02-10T10:45:34;101909.91;;;2.71;54.53
22031;BME280;11179;52.106;21.024;2023-02-10T10:48:07;101908.41;;;2.76;54.80
22031;BME280;11179;52.106;21.024;2023-02-10T10:50:34;101910.09;;;2.85;54.32
22031;BME280;11179;52.106;21.024;2023-02-10T10:53:03;101910.78;;;2.87;54.33
22031;BME280;11179;52.106;21.024;2023-02-10T10:55:41;101910.09;;;2.85;54.43
22031;BME280;11179;52.106;21.024;2023-02-10T10:58:36;101912.47;;;2.88;54.36
22031;BME280;11179;52.106;21.024;2023-02-10T11:01:04;101913.84;;;2.92;54.55
22031;BME280;11179;52.106;21.024;2023-02-10T11:03:33;101912.63;;;2.95;54.51
22031;BME280;11179;52.106;21.024;2023-02-10T11:06:11;101915.34;;;2.95;54.67
22031;BME280;11179;52.106;21.024;2023-02-10T11:08:58;101918.88;;;2.95;54.75
22031;BME280;11179;52.106;21.024;2023-02-10T11:11:37;101915.50;;;2.93;54.69
22031;BME280;11179;52.106;21.024;2023-02-10T11:14:13;101921.13;;;2.92;54.74
22031;BME280;11179;52.106;21.024;2023-02-10T11:16:50;101927.91;;;2.88;54.70
22031;BME280;11179;52.106;21.024;2023-02-10T11:19:22;101914.84;;;2.83;54.87
22031;BME280;11179;52.106;21.024;2023-02-10T11:21:49;101904.00;;;2.75;55.12
22031;BME280;11179;52.106;21.024;2023-02-10T11:27:02;101913.50;;;2.79;55.28
22031;BME280;11179;52.106;21.024;2023-02-10T11:29:39;101910.59;;;2.81;55.37
22031;BME280;11179;52.106;21.024;2023-02-10T11:32:05;101909.91;;;2.71;55.55
22031;BME280;11179;52.106;21.024;2023-02-10T11:34:37;101923.81;;;2.76;55.53
22031;BME280;11179;52.106;21.024;2023-02-10T11:37:12;101919.75;;;2.80;55.45
22031;BME280;11179;52.106;21.024;2023-02-10T11:39:40;101927.38;;;2.84;55.33
22031;BME280;11179;52.106;21.024;2023-02-10T11:42:10;101931.78;;;2.85;55.71
22031;BME280;11179;52.106;21.024;2023-02-10T11:44:36;101939.94;;;2.85;55.55
22031;BME280;11179;52.106;21.024;2023-02-10T11:47:04;101944.50;;;2.85;55.70
22031;BME280;11179;52.106;21.024;2023-02-10T11:49:34;101955.03;;;2.88;55.76
22031;BME280;11179;52.106;21.024;2023-02-10T11:52:02;101947.22;;;2.85;55.94
22031;BME280;11179;52.106;21.024;2023-02-10T11:54:29;101957.06;;;2.86;56.19
22031;BME280;11179;52.106;21.024;2023-02-10T12:02:28;101952.31;;;2.96;55.95
22031;BME280;11179;52.106;21.024;2023-02-10T12:10:29;101955.34;;;3.09;56.05
22031;BME280;11179;52.106;21.024;2023-02-10T12:15:35;101941.94;;;3.24;56.23
22031;BME280;11179;52.106;21.024;2023-02-10T12:18:09;101939.91;;;3.18;55.91
22031;BME280;11179;52.106;21.024;2023-02-10T12:25:58;101937.38;;;3.08;56.53
22031;BME280;11179;52.106;21.024;2023-02-10T12:28:41;101944.50;;;3.01;56.68
22031;BME280;11179;52.106;21.024;2023-02-10T12:42:24;101940.63;;;3.04;57.07
22031;BME280;11179;52.106;21.024;2023-02-10T12:44:59;101934.34;;;3.03;56.99
22031;BME280;11179;52.106;21.024;2023-02-10T12:50:27;101937.22;;;3.01;57.25
22031;BME280;11179;52.106;21.024;2023-02-10T12:53:10;101939.75;;;3.03;57.02
22031;BME280;11179;52.106;21.024;2023-02-10T12:56:05;101945.50;;;3.08;57.02
22031;BME280;11179;52.106;21.024;2023-02-10T12:58:43;101943.81;;;3.07;57.23
22031;BME280;11179;52.106;21.024;2023-02-10T13:01:16;101941.28;;;3.06;57.22
22031;BME280;11179;52.106;21.024;2023-02-10T13:03:46;101939.75;;;3.03;57.36
22031;BME280;11179;52.106;21.024;2023-02-10T13:06:32;101940.94;;;3.09;57.19
22031;BME280;11179;52.106;21.024;2023-02-10T13:12:27;101942.47;;;3.19;57.14
22031;BME280;11179;52.106;21.024;2023-02-10T13:14:28;101946.69;;;3.22;57.19
22031;BME280;11179;52.106;21.024;2023-02-10T13:16:55;101943.66;;;3.17;57.37
22031;BME280;11179;52.106;21.024;2023-02-10T13:19:39;101945.50;;;3.24;57.29
22031;BME280;11179;52.106;21.024;2023-02-10T13:22:24;101936.84;;;3.21;57.56
22031;BME280;11179;52.106;21.024;2023-02-10T13:27:52;101941.41;;;3.20;57.52
22031;BME280;11179;52.106;21.024;2023-02-10T13:30:36;101943.81;;;3.23;57.39
22031;BME280;11179;52.106;21.024;2023-02-10T13:36:03;101942.97;;;3.15;57.65
22031;BME280;11179;52.106;21.024;2023-02-10T13:38:31;101949.59;;;3.12;57.54
22031;BME280;11179;52.106;21.024;2023-02-10T13:40:58;101956.03;;;3.03;57.57
22031;BME280;11179;52.106;21.024;2023-02-10T13:43:43;101955.19;;;2.94;57.84
22031;BME280;11179;52.106;21.024;2023-02-10T13:46:27;101951.63;;;2.94;57.93
22031;BME280;11179;52.106;21.024;2023-02-10T13:48:57;101952.97;;;2.98;57.99
22031;BME280;11179;52.106;21.024;2023-02-10T13:51:33;101957.56;;;2.97;57.80
22031;BME280;11179;52.106;21.024;2023-02-10T13:53:59;101969.09;;;2.99;58.08
22031;BME280;11179;52.106;21.024;2023-02-10T13:56:29;101970.97;;;2.99;57.95
22031;BME280;11179;52.106;21.024;2023-02-10T14:01:36;101967.56;;;2.89;58.21
22031;BME280;11179;52.106;21.024;2023-02-10T14:04:05;101965.03;;;2.87;58.24
22031;BME280;11179;52.106;21.024;2023-02-10T14:06:34;101957.38;;;2.83;58.25
22031;BME280;11179;52.106;21.024;2023-02-10T14:09:59;101972.97;;;2.81;58.18
22031;BME280;11179;52.106;21.024;2023-02-10T14:11:50;101967.56;;;2.81;58.53
22031;BME280;11179;52.106;21.024;2023-02-10T14:14:36;101972.66;;;2.76;58.42
22031;BME280;11179;52.106;21.024;2023-02-10T14:19:40;101983.84;;;2.73;58.67
22031;BME280;11179;52.106;21.024;2023-02-10T14:22:21;101980.75;;;2.68;58.82
22031;BME280;11179;52.106;21.024;2023-02-10T14:24:48;101989.91;;;2.66;58.70